createdAt,value
2023-01-01T00:00:27.988Z,8.88
2023-01-01T00:02:34.940Z,9.73
2023-01-01T00:04:38.590Z,12.32
2023-01-01T00:06:41.223Z,7.50
2023-01-01T00:08:42.904Z,7.65
2023-01-01T00:10:44.547Z,8.73
2023-01-01T00:12:46.384Z,10.50
2023-01-01T00:14:48.099Z,20.58
2023-01-01T00:16:49.984Z,13.38
2023-01-01T00:18:51.664Z,10.80
2023-01-01T00:21:02.647Z,12.65
2023-01-01T00:23:04.351Z,9.65
2023-01-01T00:25:06.978Z,9.13
2023-01-01T00:27:08.722Z,10.40
2023-01-01T00:29:10.415Z,14.50
2023-01-01T00:31:17.799Z,11.88
2023-01-01T00:33:19.675Z,9.30
2023-01-01T00:35:21.358Z,13.27
2023-01-01T00:37:23.163Z,10.88
2023-01-01T00:39:24.865Z,12.32
2023-01-01T00:41:26.526Z,9.43
2023-01-01T00:43:28.290Z,11.27
2023-01-01T00:45:29.943Z,10.15
2023-01-01T00:47:31.668Z,14.98
2023-01-01T00:49:33.375Z,7.75
2023-01-01T00:51:37.367Z,9.38
2023-01-01T00:53:39.240Z,10.60
2023-01-01T00:55:41.733Z,10.73
2023-01-01T00:57:43.387Z,12.18
2023-01-01T00:59:45.229Z,6.90
2023-01-01T01:01:47.014Z,8.15
2023-01-01T01:03:48.931Z,6.47
2023-01-01T01:05:50.665Z,6.32
2023-01-01T01:07:52.684Z,7.72
2023-01-01T01:09:54.510Z,5.55
2023-01-01T01:12:17.286Z,7.30
2023-01-01T01:14:18.154Z,11.93
2023-01-01T01:16:23.543Z,4.55
2023-01-01T01:18:25.770Z,7.53
2023-01-01T01:20:27.569Z,13.68
2023-01-01T01:22:29.499Z,8.82
2023-01-01T01:24:31.244Z,8.40
2023-01-01T01:26:35.282Z,10.30
2023-01-01T01:28:37.048Z,8.30
2023-01-01T01:30:41.755Z,9.15
2023-01-01T01:32:43.525Z,16.50
2023-01-01T01:34:45.604Z,11.77
2023-01-01T01:36:47.978Z,13.07
2023-01-01T01:38:49.741Z,9.20
2023-01-01T01:40:51.671Z,15.15
2023-01-01T01:42:53.445Z,9.73
2023-01-01T01:44:57.959Z,13.73
2023-01-01T01:47:01.541Z,14.02
2023-01-01T01:49:14.847Z,11.48
2023-01-01T01:51:24.829Z,14.57
2023-01-01T01:53:31.098Z,11.83
2023-01-01T01:55:35.975Z,10.30
2023-01-01T01:57:39.496Z,15.27
2023-01-01T01:59:47.634Z,8.02
2023-01-01T02:01:49.490Z,13.27
2023-01-01T02:03:58.827Z,13.60
2023-01-01T02:06:02.406Z,13.95
2023-01-01T02:08:05.429Z,13.80
2023-01-01T02:10:07.439Z,18.90
2023-01-01T02:12:09.279Z,11.60
2023-01-01T02:14:11.125Z,12.32
2023-01-01T02:16:20.257Z,9.38
2023-01-01T02:18:27.878Z,9.65
2023-01-01T02:20:39.643Z,14.63
2023-01-01T02:23:04.008Z,13.40
2023-01-01T02:25:10.795Z,15.73
2023-01-01T02:27:18.882Z,12.77
2023-01-01T02:29:33.593Z,12.00
2023-01-01T02:31:49.584Z,15.40
2023-01-01T02:33:56.057Z,13.38
2023-01-01T02:36:02.290Z,12.65
2023-01-01T02:38:23.230Z,10.68
2023-01-01T02:40:26.603Z,13.20
2023-01-01T02:42:30.143Z,13.85
2023-01-01T02:44:37.932Z,9.40
2023-01-01T02:46:40.206Z,12.90
2023-01-01T02:48:43.747Z,14.10
2023-01-01T02:50:46.867Z,12.15
2023-01-01T02:53:00.287Z,9.27
2023-01-01T02:55:15.308Z,17.10
2023-01-01T02:57:27.862Z,12.82
2023-01-01T02:59:39.174Z,13.50
2023-01-01T03:01:49.578Z,13.48
2023-01-01T03:04:08.613Z,12.82
2023-01-01T03:06:28.659Z,12.35
2023-01-01T03:08:37.648Z,12.87
2023-01-01T03:10:43.960Z,15.52
2023-01-01T03:13:00.823Z,15.65
2023-01-01T03:15:13.812Z,13.60
2023-01-01T03:17:35.873Z,12.95
2023-01-01T03:19:41.356Z,10.15
2023-01-01T03:21:50.287Z,21.95
2023-01-01T03:23:54.897Z,15.70
2023-01-01T03:26:03.055Z,14.18
2023-01-01T03:28:10.704Z,8.50
2023-01-01T03:30:14.793Z,11.15
2023-01-01T03:32:44.998Z,21.45
2023-01-01T03:34:53.674Z,14.52
2023-01-01T03:36:58.215Z,14.13
2023-01-01T03:39:06.231Z,8.88
2023-01-01T03:41:15.710Z,12.68
2023-01-01T03:43:34.775Z,11.57
2023-01-01T03:45:40.904Z,16.17
2023-01-01T03:47:43.239Z,10.25
2023-01-01T03:49:46.237Z,16.70
2023-01-01T03:51:58.454Z,18.38
2023-01-01T03:54:07.398Z,18.45
2023-01-01T03:56:28.365Z,15.80
2023-01-01T03:58:46.507Z,18.08
2023-01-01T04:00:56.085Z,12.95
2023-01-01T04:03:03.921Z,26.95
2023-01-01T04:05:10.204Z,16.60
2023-01-01T04:07:15.867Z,16.92
2023-01-01T04:09:23.974Z,19.25
2023-01-01T04:11:39.149Z,21.13
2023-01-01T04:13:48.637Z,12.85
2023-01-01T04:15:50.815Z,17.13
2023-01-01T04:17:53.503Z,14.07
2023-01-01T04:19:55.507Z,15.90
2023-01-01T04:21:57.769Z,15.25
2023-01-01T04:23:59.600Z,16.55
2023-01-01T04:26:01.258Z,13.98
2023-01-01T04:28:03.684Z,17.45
2023-01-01T04:30:08.039Z,19.65
2023-01-01T04:32:09.735Z,21.90
2023-01-01T04:34:11.840Z,25.75
2023-01-01T04:36:13.603Z,19.13
2023-01-01T04:38:15.268Z,22.15
2023-01-01T04:40:17.131Z,20.80
2023-01-01T04:42:19.251Z,13.18
2023-01-01T04:44:20.953Z,23.63
2023-01-01T04:46:23.862Z,19.90
2023-01-01T04:48:26.710Z,15.38
2023-01-01T04:50:28.403Z,16.77
2023-01-01T04:52:30.081Z,32.25
2023-01-01T04:54:31.730Z,11.60
2023-01-01T04:56:33.894Z,24.25
2023-01-01T04:58:37.509Z,20.75
2023-01-01T05:00:39.309Z,20.20
2023-01-01T05:02:41.192Z,18.40
2023-01-01T05:04:43.030Z,20.75
2023-01-01T05:06:44.759Z,11.70
2023-01-01T05:08:48.630Z,17.63
2023-01-01T05:10:50.325Z,19.45
2023-01-01T05:12:52.059Z,24.25
2023-01-01T05:14:53.720Z,31.52
2023-01-01T05:16:55.446Z,20.70
2023-01-01T05:18:57.740Z,21.45
2023-01-01T05:21:01.057Z,16.98
2023-01-01T05:23:02.711Z,17.60
2023-01-01T05:25:05.124Z,15.98
2023-01-01T05:27:06.879Z,15.10
2023-01-01T05:29:15.595Z,25.60
2023-01-01T05:31:21.774Z,15.23
2023-01-01T05:33:23.489Z,23.02
2023-01-01T05:35:26.747Z,17.70
2023-01-01T05:37:28.698Z,13.73
2023-01-01T05:39:30.374Z,17.38
2023-01-01T05:41:34.248Z,18.25
2023-01-01T05:43:36.531Z,18.52
2023-01-01T05:45:38.244Z,20.30
2023-01-01T05:47:39.959Z,14.48
2023-01-01T05:49:41.622Z,18.33
2023-01-01T05:51:43.274Z,18.30
2023-01-01T05:53:45.221Z,21.33
2023-01-01T05:55:53.212Z,19.73
2023-01-01T05:57:55.135Z,14.75
2023-01-01T05:59:56.842Z,20.63
2023-01-01T06:01:58.672Z,16.73
2023-01-01T06:04:00.753Z,24.50
2023-01-01T06:06:05.608Z,20.35
2023-01-01T06:08:07.298Z,19.08
2023-01-01T06:10:09.501Z,16.83
2023-01-01T06:12:11.190Z,24.70
2023-01-01T06:14:12.837Z,22.25
2023-01-01T06:16:14.776Z,20.45
2023-01-01T06:18:16.523Z,21.80
2023-01-01T06:20:18.259Z,18.40
2023-01-01T06:22:19.895Z,16.73
2023-01-01T06:24:21.580Z,23.13
2023-01-01T06:26:26.231Z,19.73
2023-01-01T06:28:27.855Z,21.15
2023-01-01T06:30:31.661Z,21.10
2023-01-01T06:32:33.685Z,20.15
2023-01-01T06:34:35.329Z,25.55
2023-01-01T06:36:37.028Z,16.50
2023-01-01T06:38:42.192Z,19.77
2023-01-01T06:40:43.841Z,17.15
2023-01-01T06:42:45.587Z,20.17
2023-01-01T06:44:47.254Z,20.48
2023-01-01T06:46:48.994Z,25.35
2023-01-01T06:48:54.168Z,16.85
2023-01-01T06:50:56.029Z,16.73
2023-01-01T06:52:57.646Z,19.77
2023-01-01T06:54:59.286Z,22.50
2023-01-01T06:57:01.056Z,19.17
2023-01-01T06:59:03.266Z,16.83
2023-01-01T07:01:17.648Z,24.10
2023-01-01T07:03:19.529Z,20.38
2023-01-01T07:05:21.286Z,24.02
2023-01-01T07:07:22.963Z,21.17
2023-01-01T07:09:24.625Z,22.65
2023-01-01T07:11:27.196Z,17.08
2023-01-01T07:13:30.147Z,26.77
2023-01-01T07:15:31.837Z,21.85
2023-01-01T07:17:33.551Z,20.90
2023-01-01T07:19:35.232Z,24.33
2023-01-01T07:21:44.713Z,23.55
2023-01-01T07:23:46.434Z,20.10
2023-01-01T07:25:50.844Z,22.70
2023-01-01T07:27:52.494Z,20.08
2023-01-01T07:29:54.153Z,27.10
2023-01-01T07:31:55.789Z,19.23
2023-01-01T07:33:57.475Z,18.83
2023-01-01T07:35:59.174Z,25.73
2023-01-01T07:38:00.859Z,29.45
2023-01-01T07:40:02.546Z,38.20
2023-01-01T07:42:10.707Z,21.75
2023-01-01T07:44:12.747Z,21.70
2023-01-01T07:46:18.947Z,27.30
2023-01-01T07:48:21.079Z,21.85
2023-01-01T07:50:24.191Z,24.13
2023-01-01T07:52:25.885Z,26.88
2023-01-01T07:54:27.522Z,23.25
2023-01-01T07:56:29.246Z,23.70
2023-01-01T07:58:31.159Z,30.60
2023-01-01T08:00:32.825Z,21.98
2023-01-01T08:02:34.596Z,21.00
2023-01-01T08:04:36.311Z,22.70
2023-01-01T08:06:38.027Z,20.65
2023-01-01T08:08:41.395Z,23.48
2023-01-01T08:10:43.097Z,28.98
2023-01-01T08:12:44.813Z,20.55
2023-01-01T08:14:46.481Z,26.98
2023-01-01T08:16:48.197Z,19.30
2023-01-01T08:18:49.955Z,21.98
2023-01-01T08:20:51.625Z,34.40
2023-01-01T08:22:53.310Z,29.05
2023-01-01T08:24:54.979Z,19.05
2023-01-01T08:26:56.643Z,29.38
2023-01-01T08:28:58.953Z,26.17
2023-01-01T08:31:00.690Z,19.45
2023-01-01T08:33:02.499Z,24.98
2023-01-01T08:35:04.924Z,29.55
2023-01-01T08:37:07.133Z,30.23
2023-01-01T08:39:09.074Z,27.67
2023-01-01T08:41:10.809Z,30.05
2023-01-01T08:43:12.475Z,28.17
2023-01-01T08:45:14.175Z,22.67
2023-01-01T08:47:21.142Z,23.00
2023-01-01T08:49:23.015Z,26.35
2023-01-01T08:51:24.715Z,19.15
2023-01-01T08:53:27.489Z,30.63
2023-01-01T08:55:29.540Z,23.15
2023-01-01T08:57:31.681Z,21.77
2023-01-01T08:59:33.467Z,23.35
2023-01-01T09:01:35.162Z,29.42
2023-01-01T09:03:37.162Z,28.17
2023-01-01T09:05:38.876Z,25.42
2023-01-01T09:07:40.688Z,30.83
2023-01-01T09:09:42.388Z,27.35
2023-01-01T09:11:55.783Z,25.15
2023-01-01T09:13:57.446Z,21.63
2023-01-01T09:15:59.826Z,26.52
2023-01-01T09:18:02.676Z,26.50
2023-01-01T09:20:04.838Z,20.42
2023-01-01T09:22:10.730Z,28.50
2023-01-01T09:24:12.447Z,30.88
2023-01-01T09:26:14.084Z,30.92
2023-01-01T09:28:18.163Z,31.58
2023-01-01T09:30:23.825Z,31.65
2023-01-01T09:32:25.519Z,34.35
2023-01-01T09:34:27.329Z,30.52
2023-01-01T09:36:32.269Z,29.85
2023-01-01T09:38:34.064Z,24.67
2023-01-01T09:40:53.885Z,29.35
2023-01-01T09:43:09.402Z,28.42
2023-01-01T09:45:27.002Z,30.88
2023-01-01T09:47:37.380Z,24.63
2023-01-01T09:49:43.935Z,26.58
2023-01-01T09:51:58.370Z,24.45
2023-01-01T09:54:16.269Z,19.27
2023-01-01T09:56:24.425Z,21.95
2023-01-01T09:58:32.430Z,25.10
2023-01-01T10:00:35.521Z,27.63
2023-01-01T10:03:03.490Z,22.83
2023-01-01T10:05:16.890Z,22.50
2023-01-01T10:07:29.440Z,26.20
2023-01-01T10:09:43.309Z,22.13
2023-01-01T10:12:01.246Z,20.05
2023-01-01T10:14:14.030Z,27.17
2023-01-01T10:16:30.877Z,19.73
2023-01-01T10:18:38.349Z,25.70
2023-01-01T10:20:46.581Z,25.58
2023-01-01T10:23:00.438Z,14.13
2023-01-01T10:25:18.662Z,22.83
2023-01-01T10:27:34.342Z,26.85
2023-01-01T10:29:46.726Z,22.15
2023-01-01T10:31:49.349Z,24.73
2023-01-01T10:33:51.400Z,25.42
2023-01-01T10:35:57.025Z,21.90
2023-01-01T10:38:00.513Z,23.73
2023-01-01T10:40:13.491Z,32.75
2023-01-01T10:42:16.584Z,18.70
2023-01-01T10:44:32.506Z,30.77
2023-01-01T10:46:37.483Z,25.75
2023-01-01T10:48:39.622Z,23.48
2023-01-01T10:50:43.392Z,29.25
2023-01-01T10:52:56.677Z,30.23
2023-01-01T10:55:00.105Z,21.00
2023-01-01T10:57:16.407Z,22.17
2023-01-01T10:59:37.507Z,22.10
2023-01-01T11:01:39.453Z,20.27
2023-01-01T11:04:02.349Z,25.02
2023-01-01T11:06:06.116Z,23.50
2023-01-01T11:08:19.312Z,21.08
2023-01-01T11:10:24.002Z,16.92
2023-01-01T11:13:03.595Z,22.95
2023-01-01T11:14:56.214Z,24.30
2023-01-01T11:16:59.595Z,22.77
2023-01-01T11:19:05.547Z,29.90
2023-01-01T11:21:08.267Z,19.25
2023-01-01T11:23:20.188Z,18.55
2023-01-01T11:25:23.970Z,21.92
2023-01-01T11:27:26.261Z,24.42
2023-01-01T11:29:29.691Z,21.35
2023-01-01T11:31:37.541Z,18.92
2023-01-01T11:33:44.760Z,25.73
2023-01-01T11:35:53.251Z,22.35
2023-01-01T11:37:57.734Z,17.40
2023-01-01T11:40:01.862Z,24.00
2023-01-01T11:42:05.697Z,25.98
2023-01-01T11:44:10.711Z,22.70
2023-01-01T11:46:20.225Z,24.25
2023-01-01T11:48:33.400Z,16.38
2023-01-01T11:50:39.142Z,22.45
2023-01-01T11:52:42.961Z,21.15
2023-01-01T11:54:46.702Z,24.92
2023-01-01T11:56:52.731Z,30.98
2023-01-01T11:58:59.659Z,16.27
2023-01-01T12:01:09.640Z,25.88
2023-01-01T12:03:28.096Z,24.38
2023-01-01T12:05:47.207Z,20.80
2023-01-01T12:07:50.058Z,20.20
2023-01-01T12:10:02.431Z,18.70
2023-01-01T12:12:13.579Z,22.65
2023-01-01T12:14:28.271Z,23.75
2023-01-01T12:16:48.573Z,19.08
2023-01-01T12:19:02.826Z,21.58
2023-01-01T12:21:19.905Z,24.55
2023-01-01T12:23:21.830Z,21.25
2023-01-01T12:25:27.314Z,23.25
2023-01-01T12:27:40.104Z,23.98
2023-01-01T12:29:49.131Z,20.58
2023-01-01T12:32:01.796Z,24.52
2023-01-01T12:34:20.676Z,26.08
2023-01-01T12:36:34.212Z,23.58
2023-01-01T12:38:56.182Z,26.38
2023-01-01T12:41:14.675Z,22.38
2023-01-01T12:43:27.454Z,27.63
2023-01-01T12:45:36.091Z,21.85
2023-01-01T12:47:42.347Z,29.48
2023-01-01T12:50:04.736Z,32.00
2023-01-01T12:52:19.633Z,21.13
2023-01-01T12:54:33.729Z,24.25
2023-01-01T12:56:44.890Z,24.42
2023-01-01T12:58:57.545Z,23.55
2023-01-01T13:01:12.882Z,19.52
2023-01-01T13:03:21.862Z,27.02
2023-01-01T13:05:29.612Z,22.90
2023-01-01T13:07:37.057Z,35.10
2023-01-01T13:09:45.420Z,29.67
2023-01-01T13:11:52.580Z,22.40
2023-01-01T13:13:54.616Z,23.88
2023-01-01T13:15:57.527Z,23.85
2023-01-01T13:17:59.929Z,32.63
2023-01-01T13:20:05.245Z,25.20
2023-01-01T13:22:26.962Z,19.63
2023-01-01T13:24:28.853Z,17.85
2023-01-01T13:26:32.766Z,21.38
2023-01-01T13:28:34.692Z,18.33
2023-01-01T13:30:37.413Z,26.38
2023-01-01T13:33:08.431Z,24.58
2023-01-01T13:37:27.778Z,25.40
2023-01-01T13:39:50.135Z,21.98
2023-01-01T13:41:52.124Z,29.75
2023-01-01T13:44:11.643Z,25.73
2023-01-01T13:46:14.817Z,28.83
2023-01-01T13:48:35.121Z,25.67
2023-01-01T13:50:44.259Z,28.25
2023-01-01T13:53:04.414Z,25.25
2023-01-01T13:55:19.460Z,23.75
2023-01-01T13:57:40.603Z,31.08
2023-01-01T13:59:58.548Z,25.85
2023-01-01T14:02:19.497Z,23.83
2023-01-01T14:04:31.677Z,22.88
2023-01-01T14:06:43.477Z,24.98
2023-01-01T14:08:45.355Z,23.63
2023-01-01T14:10:50.543Z,28.45
2023-01-01T14:12:54.512Z,30.02
2023-01-01T14:14:56.412Z,23.35
2023-01-01T14:17:02.297Z,19.17
2023-01-01T14:19:04.370Z,18.83
2023-01-01T14:21:18.385Z,26.23
2023-01-01T14:23:28.451Z,28.17
2023-01-01T14:25:30.507Z,24.98
2023-01-01T14:27:32.750Z,24.20
2023-01-01T14:29:36.039Z,22.17
2023-01-01T14:31:44.455Z,21.38
2023-01-01T14:33:47.225Z,17.45
2023-01-01T14:35:53.891Z,23.95
2023-01-01T14:37:56.601Z,27.58
2023-01-01T14:40:08.109Z,18.10
2023-01-01T14:42:16.579Z,23.45
2023-01-01T14:44:23.167Z,24.25
2023-01-01T14:46:27.207Z,18.77
2023-01-01T14:48:29.246Z,15.93
2023-01-01T14:50:34.327Z,22.80
2023-01-01T14:52:36.508Z,18.90
2023-01-01T14:54:42.183Z,29.80
2023-01-01T14:56:50.757Z,28.58
2023-01-01T14:58:53.542Z,24.02
2023-01-01T15:01:14.904Z,16.67
2023-01-01T15:03:20.175Z,24.23
2023-01-01T15:05:23.584Z,22.90
2023-01-01T15:07:31.349Z,25.98
2023-01-01T15:09:33.744Z,20.10
2023-01-01T15:11:35.631Z,26.38
2023-01-01T15:13:37.555Z,17.50
2023-01-01T15:15:44.301Z,25.63
2023-01-01T15:17:47.697Z,18.55
2023-01-01T15:20:01.551Z,15.40
2023-01-01T15:22:12.913Z,23.60
2023-01-01T15:24:24.090Z,19.35
2023-01-01T15:26:32.136Z,21.67
2023-01-01T15:28:34.161Z,20.77
2023-01-01T15:30:37.033Z,27.90
2023-01-01T15:32:39.486Z,27.45
2023-01-01T15:34:44.255Z,26.42
2023-01-01T15:36:46.113Z,25.48
2023-01-01T15:38:48.753Z,25.13
2023-01-01T15:40:54.066Z,21.23
2023-01-01T15:42:57.610Z,19.75
2023-01-01T15:45:22.199Z,22.88
2023-01-01T15:47:26.889Z,14.35
2023-01-01T15:49:30.671Z,20.85
2023-01-01T15:51:32.855Z,20.30
2023-01-01T15:53:54.757Z,21.25
2023-01-01T15:56:00.295Z,24.35
2023-01-01T15:58:03.600Z,24.88
2023-01-01T16:00:06.070Z,26.25
2023-01-01T16:02:18.522Z,17.92
2023-01-01T16:04:28.762Z,22.67
2023-01-01T16:06:31.145Z,25.95
2023-01-01T16:08:33.076Z,24.13
2023-01-01T16:10:35.132Z,31.45
2023-01-01T16:12:37.040Z,27.30
2023-01-01T16:14:38.948Z,29.30
2023-01-01T16:16:45.588Z,22.35
2023-01-01T16:18:47.849Z,23.25
2023-01-01T16:20:49.885Z,22.02
2023-01-01T16:22:51.720Z,21.83
2023-01-01T16:24:55.121Z,27.80
2023-01-01T16:26:57.061Z,26.88
2023-01-01T16:28:58.823Z,29.38
2023-01-01T16:31:00.819Z,31.65
2023-01-01T16:33:04.603Z,21.05
2023-01-01T16:35:12.070Z,18.55
2023-01-01T16:37:16.586Z,22.27
2023-01-01T16:39:19.138Z,18.88
2023-01-01T16:41:21.080Z,13.27
2023-01-01T16:43:23.141Z,12.55
2023-01-01T16:45:25.072Z,14.75
2023-01-01T16:47:27.035Z,10.90
2023-01-01T16:49:28.954Z,14.98
2023-01-01T16:51:32.314Z,9.75
2023-01-01T16:53:36.439Z,10.75
2023-01-01T16:55:38.481Z,11.40
2023-01-01T16:57:41.239Z,17.55
2023-01-01T16:59:43.151Z,11.90
2023-01-01T17:01:45.214Z,16.13
2023-01-01T17:03:47.380Z,10.02
2023-01-01T17:05:49.220Z,17.27
2023-01-01T17:07:52.470Z,11.80
2023-01-01T17:09:54.271Z,13.85
2023-01-01T17:11:56.163Z,14.27
2023-01-01T17:13:59.905Z,10.30
2023-01-01T17:16:03.030Z,14.95
2023-01-01T17:18:05.213Z,10.55
2023-01-01T17:20:07.874Z,20.20
2023-01-01T17:22:09.872Z,14.57
2023-01-01T17:24:11.808Z,14.00
2023-01-01T17:26:16.422Z,18.77
2023-01-01T17:28:18.332Z,12.55
2023-01-01T17:30:20.265Z,24.75
2023-01-01T17:32:22.171Z,15.45
2023-01-01T17:34:24.121Z,17.70
2023-01-01T17:36:27.694Z,15.10
2023-01-01T17:38:29.977Z,20.33
2023-01-01T17:40:36.710Z,23.67
2023-01-01T17:42:39.486Z,13.73
2023-01-01T17:44:41.393Z,16.60
2023-01-01T17:46:44.749Z,23.45
2023-01-01T17:48:47.138Z,17.92
2023-01-01T17:50:49.045Z,18.73
2023-01-01T17:52:52.609Z,10.35
2023-01-01T17:54:54.501Z,17.48
2023-01-01T17:56:59.631Z,12.00
2023-01-01T17:59:01.731Z,12.18
2023-01-01T18:01:11.483Z,11.75
2023-01-01T18:03:14.398Z,7.75
2023-01-01T18:05:16.600Z,17.00
2023-01-01T18:07:18.821Z,16.80
2023-01-01T18:11:26.193Z,10.65
2023-01-01T18:13:28.849Z,10.85
2023-01-01T18:15:30.810Z,9.38
2023-01-01T18:17:33.103Z,8.95
2023-01-01T18:19:37.431Z,11.32
2023-01-01T18:21:39.526Z,7.18
2023-01-01T18:23:42.017Z,13.68
2023-01-01T18:25:43.900Z,10.27
2023-01-01T18:27:45.832Z,8.57
2023-01-01T18:29:49.800Z,7.15
2023-01-01T18:31:51.683Z,9.68
2023-01-01T18:33:54.332Z,14.80
2023-01-01T18:35:57.726Z,10.02
2023-01-01T18:37:59.837Z,10.43
2023-01-01T18:40:01.728Z,9.88
2023-01-01T18:42:15.536Z,9.05
2023-01-01T18:44:28.826Z,10.77
2023-01-01T18:46:31.562Z,11.88
2023-01-01T18:48:33.315Z,10.10
2023-01-01T18:50:36.671Z,13.63
2023-01-01T18:52:42.413Z,11.60
2023-01-01T18:54:44.129Z,10.05
2023-01-01T18:56:46.593Z,8.02
2023-01-01T18:58:49.831Z,12.70
2023-01-01T19:00:53.870Z,7.22
2023-01-01T19:02:58.633Z,15.00
2023-01-01T19:05:30.757Z,11.60
2023-01-01T19:07:32.428Z,9.32
2023-01-01T19:09:37.226Z,11.27
2023-01-01T19:11:39.069Z,10.65
2023-01-01T19:13:40.767Z,12.00
2023-01-01T19:16:17.947Z,13.70
2023-01-01T19:18:25.423Z,8.75
2023-01-01T19:20:27.100Z,16.13
2023-01-01T19:22:37.072Z,8.43
2023-01-01T19:24:39.510Z,8.30
2023-01-01T19:26:41.240Z,7.72
2023-01-01T19:28:49.439Z,8.25
2023-01-01T19:30:51.242Z,8.93
2023-01-01T19:32:53.048Z,9.40
2023-01-01T19:34:56.180Z,10.07
2023-01-01T19:36:57.981Z,14.48
2023-01-01T19:38:59.690Z,13.73
2023-01-01T19:41:01.382Z,11.73
2023-01-01T19:43:03.765Z,15.57
2023-01-01T19:45:08.380Z,11.90
2023-01-01T19:47:10.698Z,17.20
2023-01-01T19:49:12.410Z,18.70
2023-01-01T19:51:14.082Z,14.25
2023-01-01T19:53:15.976Z,8.52
2023-01-01T19:55:17.873Z,10.45
2023-01-01T19:57:20.559Z,15.38
2023-01-01T19:59:26.376Z,14.90
2023-01-01T20:01:32.835Z,10.63
2023-01-01T20:03:53.454Z,13.43
2023-01-01T20:05:56.381Z,11.32
2023-01-01T20:07:58.088Z,14.77
2023-01-01T20:09:59.734Z,11.18
2023-01-01T20:12:01.400Z,10.05
2023-01-01T20:14:03.865Z,9.95
2023-01-01T20:16:06.005Z,8.23
2023-01-01T20:18:07.720Z,9.73
2023-01-01T20:20:10.961Z,12.07
2023-01-01T20:22:14.109Z,12.52
2023-01-01T20:24:17.647Z,10.82
2023-01-01T20:26:20.864Z,6.97
2023-01-01T20:28:41.428Z,12.35
2023-01-01T20:30:43.231Z,11.95
2023-01-01T20:32:46.662Z,12.55
2023-01-01T20:34:48.512Z,10.85
2023-01-01T20:37:09.027Z,10.80
2023-01-01T20:39:10.684Z,14.38
2023-01-01T20:41:24.450Z,8.98
2023-01-01T20:43:26.194Z,6.85
2023-01-01T20:45:27.901Z,13.80
2023-01-01T20:47:29.715Z,7.50
2023-01-01T20:49:31.455Z,8.10
2023-01-01T20:51:33.423Z,12.93
2023-01-01T20:53:35.085Z,10.73
2023-01-01T20:55:36.821Z,9.45
2023-01-01T20:57:38.508Z,11.43
2023-01-01T20:59:40.329Z,8.23
2023-01-01T21:01:42.945Z,5.65
2023-01-01T21:03:44.702Z,11.23
2023-01-01T21:05:46.716Z,6.47
2023-01-01T21:07:48.377Z,9.15
2023-01-01T21:09:50.052Z,10.25
2023-01-01T21:11:51.805Z,7.63
2023-01-01T21:13:53.616Z,6.28
2023-01-01T21:16:00.492Z,7.60
2023-01-01T21:18:05.373Z,9.00
2023-01-01T21:20:08.444Z,7.30
2023-01-01T21:22:12.736Z,8.52
2023-01-01T21:24:28.207Z,7.90
2023-01-01T21:26:35.938Z,6.63
2023-01-01T21:28:37.649Z,6.68
2023-01-01T21:30:54.933Z,4.60
2023-01-01T21:32:56.669Z,8.55
2023-01-01T21:34:58.348Z,4.70
2023-01-01T21:37:41.724Z,6.25
2023-01-01T21:39:43.690Z,9.68
2023-01-01T21:41:45.379Z,8.98
2023-01-01T21:43:50.349Z,10.43
2023-01-01T21:45:52.776Z,9.90
2023-01-01T21:47:54.505Z,8.05
2023-01-01T21:49:56.633Z,5.95
2023-01-01T21:52:01.066Z,12.98
2023-01-01T21:54:17.545Z,9.55
2023-01-01T21:56:35.331Z,5.03
2023-01-01T21:59:01.924Z,12.90
2023-01-01T22:01:26.449Z,12.57
2023-01-01T22:03:28.680Z,8.18
2023-01-01T22:05:32.119Z,11.90
2023-01-01T22:07:57.916Z,9.63
2023-01-01T22:10:10.220Z,11.13
2023-01-01T22:12:14.739Z,10.48
2023-01-01T22:14:23.298Z,10.32
2023-01-01T22:16:33.970Z,12.35
2023-01-01T22:18:39.402Z,6.75
2023-01-01T22:20:44.308Z,10.88
2023-01-01T22:22:46.006Z,12.63
2023-01-01T22:24:57.050Z,10.82
2023-01-01T22:27:14.125Z,13.43
2023-01-01T22:29:21.871Z,12.68
2023-01-01T22:31:30.932Z,10.63
2023-01-01T22:33:38.237Z,9.88
2023-01-01T22:35:40.007Z,8.82
2023-01-01T22:37:42.454Z,9.63
2023-01-01T22:39:44.317Z,7.93
2023-01-01T22:41:50.278Z,11.00
2023-01-01T22:43:58.233Z,8.52
2023-01-01T22:46:11.963Z,9.07
2023-01-01T22:48:23.207Z,6.72
2023-01-01T22:50:27.669Z,7.35
2023-01-01T22:52:29.797Z,9.15
2023-01-01T22:54:31.451Z,10.38
2023-01-01T22:56:33.154Z,11.80
2023-01-01T22:58:34.836Z,10.07
2023-01-01T23:00:36.497Z,11.77
2023-01-01T23:02:46.368Z,15.32
2023-01-01T23:04:48.081Z,8.65
2023-01-01T23:06:49.876Z,7.57
2023-01-01T23:08:52.551Z,4.35
2023-01-01T23:10:54.518Z,8.60
2023-01-01T23:12:56.182Z,12.75
2023-01-01T23:15:17.350Z,8.18
2023-01-01T23:17:19.104Z,5.22
2023-01-01T23:19:20.971Z,4.82
2023-01-01T23:21:27.100Z,6.35
2023-01-01T23:23:31.137Z,7.07
2023-01-01T23:25:33.174Z,3.22
2023-01-01T23:27:35.305Z,8.13
2023-01-01T23:29:37.193Z,5.72
2023-01-01T23:31:40.094Z,10.98
2023-01-01T23:33:42.180Z,7.85
2023-01-01T23:35:43.953Z,5.97
2023-01-01T23:37:45.691Z,4.70
2023-01-01T23:39:47.462Z,6.80
2023-01-01T23:41:49.425Z,2.60
2023-01-01T23:43:51.302Z,6.78
2023-01-01T23:45:53.123Z,9.35
2023-01-01T23:47:55.177Z,6.60
2023-01-01T23:49:57.143Z,5.47
2023-01-01T23:52:00.827Z,5.00
2023-01-01T23:54:02.725Z,3.92
2023-01-01T23:56:04.878Z,9.55
2023-01-01T23:58:06.613Z,6.63
